createdAt,value
2022-08-19T00:01:52.953Z,68.40
2022-08-19T00:04:25.686Z,68.19
2022-08-19T00:06:54.985Z,68.78
2022-08-19T00:09:24.641Z,68.27
2022-08-19T00:11:56.745Z,68.65
2022-08-19T00:14:25.830Z,68.03
2022-08-19T00:16:55.722Z,68.18
2022-08-19T00:19:25.234Z,68.30
2022-08-19T00:21:56.376Z,68.32
2022-08-19T00:24:24.674Z,68.73
2022-08-19T00:26:53.213Z,68.82
2022-08-19T00:29:23.087Z,68.74
2022-08-19T00:31:54.018Z,68.71
2022-08-19T00:34:22.195Z,68.68
2022-08-19T00:36:50.168Z,69.03
2022-08-19T00:39:19.971Z,68.72
2022-08-19T00:41:49.775Z,68.26
2022-08-19T00:44:21.449Z,68.28
2022-08-19T00:46:58.506Z,68.38
2022-08-19T00:49:31.813Z,67.88
2022-08-19T00:52:03.864Z,67.96
2022-08-19T00:54:34.259Z,67.76
2022-08-19T00:57:04.976Z,68.00
2022-08-19T01:00:00.992Z,67.22
2022-08-19T01:02:21.139Z,67.26
2022-08-19T01:04:49.011Z,67.57
2022-08-19T01:07:19.744Z,67.34
2022-08-19T01:09:49.423Z,67.95
2022-08-19T01:12:18.815Z,67.69
2022-08-19T01:14:47.650Z,67.33
2022-08-19T01:17:17.263Z,67.98
2022-08-19T01:19:47.760Z,67.62
2022-08-19T01:22:28.666Z,67.61
2022-08-19T01:24:59.728Z,67.45
2022-08-19T01:27:29.590Z,67.88
2022-08-19T01:30:09.434Z,67.82
2022-08-19T01:32:37.574Z,68.09
2022-08-19T01:35:05.881Z,67.92
2022-08-19T01:37:44.956Z,68.50
2022-08-19T01:40:14.910Z,68.10
2022-08-19T01:42:43.194Z,68.17
2022-08-19T01:45:12.150Z,68.36
2022-08-19T01:47:40.711Z,68.76
2022-08-19T01:50:11.734Z,68.80
2022-08-19T01:52:41.332Z,68.90
2022-08-19T01:55:12.768Z,69.46
2022-08-19T01:57:45.030Z,69.18
2022-08-19T02:00:16.462Z,69.47
2022-08-19T02:02:44.998Z,69.73
2022-08-19T02:05:14.078Z,69.60
2022-08-19T02:07:43.039Z,70.19
2022-08-19T02:10:16.728Z,69.32
2022-08-19T02:12:46.614Z,69.43
2022-08-19T02:15:15.943Z,69.06
2022-08-19T02:17:44.670Z,69.86
2022-08-19T02:20:14.450Z,69.11
2022-08-19T02:22:43.468Z,68.86
2022-08-19T02:25:12.341Z,69.51
2022-08-19T02:27:40.978Z,70.09
2022-08-19T02:30:20.137Z,70.30
2022-08-19T02:32:48.073Z,69.31
2022-08-19T02:35:16.568Z,69.66
2022-08-19T02:38:02.363Z,69.91
2022-08-19T02:40:30.809Z,69.39
2022-08-19T02:42:58.941Z,69.51
2022-08-19T02:45:28.430Z,69.26
2022-08-19T02:47:58.272Z,70.21
2022-08-19T02:50:26.793Z,70.58
2022-08-19T02:52:55.012Z,70.00
2022-08-19T02:55:22.930Z,69.78
2022-08-19T02:57:51.114Z,69.92
2022-08-19T03:00:19.138Z,70.40
2022-08-19T03:02:49.934Z,69.37
2022-08-19T03:05:18.623Z,69.95
2022-08-19T03:07:53.246Z,70.53
2022-08-19T03:10:21.354Z,69.53
2022-08-19T03:12:49.255Z,69.66
2022-08-19T03:15:17.403Z,70.19
2022-08-19T03:17:45.441Z,70.54
2022-08-19T03:20:14.931Z,70.68
2022-08-19T03:22:43.254Z,70.26
2022-08-19T03:25:13.050Z,70.51
2022-08-19T03:27:40.883Z,70.71
2022-08-19T03:30:11.668Z,69.78
2022-08-19T03:32:45.371Z,70.17
2022-08-19T03:35:14.925Z,70.22
2022-08-19T03:37:42.844Z,69.98
2022-08-19T03:40:16.474Z,70.19
2022-08-19T03:42:49.185Z,71.13
2022-08-19T03:45:17.576Z,70.53
2022-08-19T03:47:47.725Z,71.36
2022-08-19T03:50:18.218Z,71.29
2022-08-19T03:52:51.636Z,70.79
2022-08-19T03:55:19.873Z,71.00
2022-08-19T03:57:49.713Z,71.68
2022-08-19T04:00:18.617Z,71.36
2022-08-19T04:02:58.336Z,70.82
2022-08-19T04:05:30.599Z,70.90
2022-08-19T04:08:00.422Z,71.56
2022-08-19T04:10:29.194Z,71.67
2022-08-19T04:12:57.089Z,70.78
2022-08-19T04:15:25.149Z,71.08
2022-08-19T04:17:53.153Z,71.81
2022-08-19T04:20:20.971Z,72.11
2022-08-19T04:22:50.333Z,72.00
2022-08-19T04:25:18.634Z,72.12
2022-08-19T04:27:47.496Z,71.23
2022-08-19T04:30:16.312Z,71.93
2022-08-19T04:32:44.692Z,72.24
2022-08-19T04:35:18.474Z,71.19
2022-08-19T04:37:48.047Z,70.99
2022-08-19T04:40:35.070Z,71.94
2022-08-19T04:43:03.107Z,71.03
2022-08-19T04:45:39.696Z,71.38
2022-08-19T04:48:27.337Z,70.74
2022-08-19T04:50:59.120Z,72.12
2022-08-19T04:53:29.858Z,71.91
2022-08-19T04:56:09.962Z,71.05
2022-08-19T04:58:39.334Z,71.81
2022-08-19T05:01:07.331Z,70.93
2022-08-19T05:03:35.866Z,71.75
2022-08-19T05:06:08.538Z,71.59
2022-08-19T05:08:38.144Z,71.55
2022-08-19T05:11:14.156Z,70.42
2022-08-19T05:13:43.439Z,70.95
2022-08-19T05:16:12.392Z,71.80
2022-08-19T05:18:58.206Z,71.79
2022-08-19T05:21:44.570Z,71.75
2022-08-19T05:24:13.817Z,71.15
2022-08-19T05:26:47.371Z,71.71
2022-08-19T05:29:16.488Z,70.74
2022-08-19T05:31:45.088Z,70.94
2022-08-19T05:34:18.285Z,70.43
2022-08-19T05:36:48.826Z,70.40
2022-08-19T05:39:19.406Z,70.98
2022-08-19T05:41:50.544Z,71.30
2022-08-19T05:44:19.278Z,70.49
2022-08-19T05:46:48.188Z,71.16
2022-08-19T05:49:17.941Z,71.22
2022-08-19T05:51:46.456Z,71.11
2022-08-19T05:54:14.963Z,70.53
2022-08-19T05:56:43.565Z,71.12
2022-08-19T05:59:13.370Z,70.59
2022-08-19T06:01:44.008Z,70.63
2022-08-19T06:04:11.988Z,70.28
2022-08-19T06:06:40.076Z,70.06
2022-08-19T06:09:11.023Z,69.80
2022-08-19T06:11:41.371Z,69.69
2022-08-19T06:14:13.687Z,69.64
2022-08-19T06:16:46.537Z,69.61
2022-08-19T06:19:17.870Z,68.81
2022-08-19T06:21:48.451Z,69.00
2022-08-19T06:24:19.895Z,68.79
2022-08-19T06:26:51.492Z,68.69
2022-08-19T06:29:24.286Z,68.26
2022-08-19T06:31:56.257Z,68.82
2022-08-19T06:34:24.270Z,68.62
2022-08-19T06:36:54.169Z,69.08
2022-08-19T06:39:24.018Z,68.40
2022-08-19T06:41:58.136Z,68.30
2022-08-19T06:44:30.433Z,68.54
2022-08-19T06:47:01.254Z,68.29
2022-08-19T06:49:38.398Z,68.48
2022-08-19T06:52:07.464Z,68.29
2022-08-19T06:54:45.952Z,68.00
2022-08-19T06:57:23.427Z,68.47
2022-08-19T06:59:51.389Z,68.32
2022-08-19T07:02:22.097Z,68.21
2022-08-19T07:04:52.770Z,68.71
2022-08-19T07:07:22.531Z,68.05
2022-08-19T07:09:58.682Z,66.80
2022-08-19T07:12:32.456Z,66.92
2022-08-19T07:15:00.527Z,66.91
2022-08-19T07:17:30.983Z,67.76
2022-08-19T07:20:06.798Z,67.40
2022-08-19T07:22:37.781Z,67.72
2022-08-19T07:25:07.611Z,66.96
2022-08-19T07:27:36.035Z,66.67
2022-08-19T07:30:05.911Z,66.13
2022-08-19T07:32:35.533Z,66.15
2022-08-19T07:35:04.453Z,65.61
2022-08-19T07:37:33.515Z,65.61
2022-08-19T07:40:02.062Z,66.30
2022-08-19T07:42:30.515Z,64.67
2022-08-19T07:44:58.779Z,65.92
2022-08-19T07:47:49.615Z,65.34
2022-08-19T07:50:19.349Z,64.98
2022-08-19T07:52:49.127Z,64.95
2022-08-19T07:55:41.039Z,66.32
2022-08-19T07:58:09.703Z,64.87
2022-08-19T08:00:38.009Z,64.79
2022-08-19T08:03:05.970Z,65.48
2022-08-19T08:05:52.649Z,65.95
2022-08-19T08:08:37.710Z,64.61
2022-08-19T08:11:15.378Z,64.55
2022-08-19T08:13:44.201Z,65.00
2022-08-19T08:16:14.400Z,66.35
2022-08-19T08:18:47.839Z,66.95
2022-08-19T08:21:20.250Z,65.62
2022-08-19T08:23:48.561Z,65.66
2022-08-19T08:26:17.236Z,65.23
2022-08-19T08:28:49.503Z,65.14
2022-08-19T08:31:17.551Z,65.13
2022-08-19T08:33:45.776Z,65.41
2022-08-19T08:36:15.831Z,65.91
2022-08-19T08:38:47.374Z,63.96
2022-08-19T08:41:24.579Z,64.09
2022-08-19T08:43:54.475Z,63.43
2022-08-19T08:46:30.735Z,64.53
2022-08-19T08:49:09.921Z,63.54
2022-08-19T08:54:20.309Z,62.41
2022-08-19T08:56:51.621Z,62.20
2022-08-19T08:59:25.660Z,62.66
2022-08-19T09:01:53.710Z,61.13
2022-08-19T09:04:21.397Z,61.07
2022-08-19T09:07:01.363Z,60.71
2022-08-19T09:09:50.506Z,60.97
2022-08-19T09:12:28.822Z,60.57
2022-08-19T09:15:02.195Z,61.07
2022-08-19T09:17:34.567Z,60.61
2022-08-19T09:20:09.628Z,61.56
2022-08-19T09:22:39.254Z,61.62
2022-08-19T09:25:11.261Z,62.05
2022-08-19T09:27:42.264Z,63.93
2022-08-19T09:30:14.180Z,64.90
2022-08-19T09:32:43.916Z,65.14
2022-08-19T09:35:12.401Z,65.29
2022-08-19T09:37:40.605Z,65.09
2022-08-19T09:40:12.413Z,64.98
2022-08-19T09:42:50.334Z,64.82
2022-08-19T09:45:23.812Z,63.42
2022-08-19T09:47:54.578Z,64.09
2022-08-19T09:50:24.596Z,63.54
2022-08-19T09:52:55.695Z,63.41
2022-08-19T09:55:32.095Z,63.25
2022-08-19T09:58:02.372Z,61.59
2022-08-19T10:00:31.335Z,61.67
2022-08-19T10:02:59.409Z,60.91
2022-08-19T10:05:44.548Z,60.23
2022-08-19T10:08:18.930Z,57.71
2022-08-19T10:10:51.704Z,57.05
2022-08-19T10:13:23.113Z,58.13
2022-08-19T10:15:52.252Z,57.04
2022-08-19T10:18:22.200Z,58.43
2022-08-19T10:20:52.753Z,60.38
2022-08-19T10:23:22.842Z,60.46
2022-08-19T10:25:54.746Z,61.27
2022-08-19T10:28:24.162Z,61.50
2022-08-19T10:30:52.019Z,61.91
2022-08-19T10:33:39.382Z,60.64
2022-08-19T10:36:10.568Z,62.14
2022-08-19T10:38:39.147Z,60.50
2022-08-19T10:41:25.246Z,60.88
2022-08-19T10:43:55.319Z,60.92
2022-08-19T10:46:25.230Z,61.17
2022-08-19T10:48:53.787Z,62.41
2022-08-19T10:51:48.069Z,62.80
2022-08-19T10:54:17.201Z,64.33
2022-08-19T10:57:00.979Z,63.96
2022-08-19T10:59:35.805Z,63.40
2022-08-19T11:02:05.797Z,62.11
2022-08-19T11:04:34.306Z,61.80
2022-08-19T11:07:04.563Z,62.12
2022-08-19T11:09:34.228Z,61.87
2022-08-19T11:12:04.843Z,60.54
2022-08-19T11:14:35.026Z,60.96
2022-08-19T11:17:03.717Z,59.62
2022-08-19T11:19:31.961Z,58.83
2022-08-19T11:22:00.872Z,59.20
2022-08-19T11:24:29.556Z,59.21
2022-08-19T11:27:05.802Z,58.32
2022-08-19T11:29:35.462Z,57.89
2022-08-19T11:32:07.118Z,58.29
2022-08-19T11:34:36.398Z,57.94
2022-08-19T11:37:06.959Z,57.32
2022-08-19T11:39:36.534Z,57.70
2022-08-19T11:42:28.175Z,57.25
2022-08-19T11:44:56.720Z,57.48
2022-08-19T11:47:25.202Z,56.23
2022-08-19T11:49:54.465Z,55.61
2022-08-19T11:52:22.318Z,54.88
2022-08-19T11:54:50.503Z,53.59
2022-08-19T11:57:20.751Z,54.50
2022-08-19T11:59:52.626Z,53.49
2022-08-19T12:02:20.840Z,53.24
2022-08-19T12:04:49.055Z,53.61
2022-08-19T12:07:17.089Z,53.33
2022-08-19T12:09:44.949Z,53.24
2022-08-19T12:12:14.158Z,53.28
2022-08-19T12:14:43.387Z,54.03
2022-08-19T12:17:12.439Z,53.43
2022-08-19T12:19:41.971Z,53.25
2022-08-19T12:22:09.821Z,53.59
2022-08-19T12:24:37.694Z,53.55
2022-08-19T12:27:05.862Z,53.32
2022-08-19T12:29:41.236Z,53.60
2022-08-19T12:32:12.249Z,52.57
2022-08-19T12:34:41.001Z,51.85
2022-08-19T12:37:09.534Z,52.74
2022-08-19T12:39:40.290Z,50.52
2022-08-19T12:42:09.731Z,51.08
2022-08-19T12:44:37.998Z,51.11
2022-08-19T12:47:07.651Z,51.42
2022-08-19T12:49:54.568Z,50.06
2022-08-19T12:52:25.288Z,50.44
2022-08-19T12:54:55.549Z,50.60
2022-08-19T12:57:32.212Z,50.16
2022-08-19T13:00:05.567Z,49.39
2022-08-19T13:02:38.999Z,48.92
2022-08-19T13:05:12.252Z,49.32
2022-08-19T13:07:42.256Z,48.94
2022-08-19T13:10:13.472Z,48.86
2022-08-19T13:12:43.045Z,48.60
2022-08-19T13:15:12.127Z,48.16
2022-08-19T13:17:40.894Z,46.40
2022-08-19T13:20:12.636Z,46.24
2022-08-19T13:22:40.985Z,45.73
2022-08-19T13:25:10.741Z,46.49
2022-08-19T13:27:39.484Z,46.75
2022-08-19T13:30:27.336Z,47.05
2022-08-19T13:33:15.651Z,46.84
2022-08-19T13:35:48.753Z,48.05
2022-08-19T13:38:19.189Z,48.16
2022-08-19T13:40:50.622Z,47.55
2022-08-19T13:43:22.793Z,46.52
2022-08-19T13:45:56.953Z,45.33
2022-08-19T13:48:27.416Z,45.75
2022-08-19T13:50:57.143Z,46.09
2022-08-19T13:53:25.749Z,46.36
2022-08-19T13:55:54.715Z,46.15
2022-08-19T13:58:22.860Z,45.08
2022-08-19T14:00:51.069Z,45.79
2022-08-19T14:03:18.984Z,44.53
2022-08-19T14:05:47.138Z,45.64
2022-08-19T14:08:16.384Z,45.24
2022-08-19T14:10:45.633Z,44.96
2022-08-19T14:13:16.938Z,43.60
2022-08-19T14:15:45.810Z,43.06
2022-08-19T14:18:13.779Z,42.28
2022-08-19T14:20:41.907Z,41.52
2022-08-19T14:23:09.909Z,41.40
2022-08-19T14:25:39.114Z,41.34
2022-08-19T14:28:08.253Z,40.92
2022-08-19T14:30:38.698Z,40.31
2022-08-19T14:33:08.073Z,41.30
2022-08-19T14:35:36.800Z,41.04
2022-08-19T14:38:05.841Z,41.11
2022-08-19T14:40:35.859Z,40.52
2022-08-19T14:43:06.442Z,41.18
2022-08-19T14:45:36.770Z,41.04
2022-08-19T14:48:05.700Z,41.15
2022-08-19T14:50:34.141Z,41.15
2022-08-19T14:53:11.940Z,40.70
2022-08-19T14:55:43.921Z,41.70
2022-08-19T14:58:29.012Z,41.92
2022-08-19T15:00:59.855Z,41.65
2022-08-19T15:03:28.026Z,41.63
2022-08-19T15:05:57.679Z,42.02
2022-08-19T15:08:25.810Z,43.10
2022-08-19T15:10:54.368Z,43.20
2022-08-19T15:13:24.214Z,43.44
2022-08-19T15:15:52.693Z,44.61
2022-08-19T15:18:23.980Z,43.72
2022-08-19T15:20:52.572Z,45.16
2022-08-19T15:23:21.360Z,43.92
2022-08-19T15:25:50.148Z,45.28
2022-08-19T15:28:18.540Z,45.16
2022-08-19T15:30:48.492Z,45.68
2022-08-19T15:33:17.215Z,45.85
2022-08-19T15:35:45.950Z,45.72
2022-08-19T15:38:14.847Z,45.80
2022-08-19T15:40:43.555Z,46.15
2022-08-19T15:43:11.554Z,46.30
2022-08-19T15:45:40.352Z,46.23
2022-08-19T15:48:09.855Z,47.90
2022-08-19T15:50:38.767Z,47.34
2022-08-19T15:53:10.773Z,46.92
2022-08-19T15:55:45.231Z,46.25
2022-08-19T15:58:33.333Z,47.04
2022-08-19T16:01:21.371Z,47.08
2022-08-19T16:04:11.025Z,47.69
2022-08-19T16:06:43.790Z,47.68
2022-08-19T16:09:13.117Z,48.31
2022-08-19T16:11:45.468Z,47.29
2022-08-19T16:14:14.855Z,47.94
2022-08-19T16:16:47.081Z,48.05
2022-08-19T16:19:18.103Z,48.58
2022-08-19T16:21:48.062Z,49.15
2022-08-19T16:24:18.992Z,49.96
2022-08-19T16:26:47.505Z,50.23
2022-08-19T16:29:22.124Z,51.42
2022-08-19T16:32:03.232Z,53.34
2022-08-19T16:34:32.819Z,53.61
2022-08-19T16:37:02.218Z,53.26
2022-08-19T16:39:30.855Z,54.20
2022-08-19T16:41:59.197Z,54.11
2022-08-19T16:44:29.645Z,54.83
2022-08-19T16:47:00.775Z,55.62
2022-08-19T16:49:53.052Z,56.48
2022-08-19T16:52:21.450Z,57.72
2022-08-19T16:54:50.196Z,58.71
2022-08-19T16:57:19.381Z,58.90
2022-08-19T16:59:49.237Z,60.20
2022-08-19T17:02:18.462Z,61.56
2022-08-19T17:04:57.098Z,63.20
2022-08-19T17:07:28.088Z,64.31
2022-08-19T17:09:56.218Z,64.87
2022-08-19T17:12:30.798Z,66.85
2022-08-19T17:15:01.145Z,66.46
2022-08-19T17:17:29.727Z,68.14
2022-08-19T17:19:58.019Z,68.52
2022-08-19T17:22:27.805Z,69.05
2022-08-19T17:24:57.906Z,69.13
2022-08-19T17:27:27.243Z,70.29
2022-08-19T17:30:00.531Z,71.64
2022-08-19T17:32:28.737Z,70.37
2022-08-19T17:34:56.691Z,72.57
2022-08-19T17:37:24.686Z,72.31
2022-08-19T17:39:54.000Z,71.57
2022-08-19T17:42:21.882Z,72.31
2022-08-19T17:44:50.393Z,73.13
2022-08-19T17:47:19.409Z,73.69
2022-08-19T17:49:47.830Z,72.65
2022-08-19T17:52:15.708Z,73.29
2022-08-19T17:54:43.786Z,73.50
2022-08-19T17:57:14.257Z,72.12
2022-08-19T17:59:42.126Z,72.69
2022-08-19T18:02:12.248Z,73.62
2022-08-19T18:04:41.407Z,73.27
2022-08-19T18:07:11.733Z,73.36
2022-08-19T18:09:42.981Z,72.15
2022-08-19T18:12:24.536Z,72.20
2022-08-19T18:14:52.707Z,73.36
2022-08-19T18:17:23.296Z,74.24
2022-08-19T18:19:51.336Z,73.53
2022-08-19T18:22:27.312Z,75.00
2022-08-19T18:24:56.332Z,75.23
2022-08-19T18:27:26.088Z,75.28
2022-08-19T18:30:00.049Z,74.37
2022-08-19T18:32:31.517Z,75.02
2022-08-19T18:35:01.309Z,74.71
2022-08-19T18:37:29.452Z,74.74
2022-08-19T18:40:15.054Z,75.43
2022-08-19T18:43:03.221Z,76.20
2022-08-19T18:45:49.042Z,75.78
2022-08-19T18:48:34.595Z,76.77
2022-08-19T18:51:03.482Z,76.30
2022-08-19T18:53:34.376Z,77.43
2022-08-19T18:56:02.768Z,77.18
2022-08-19T18:58:33.934Z,77.58
2022-08-19T19:01:09.443Z,77.89
2022-08-19T19:03:37.954Z,77.86
2022-08-19T19:06:07.487Z,78.49
2022-08-19T19:08:35.731Z,78.19
2022-08-19T19:11:06.119Z,78.89
2022-08-19T19:13:37.207Z,78.87
2022-08-19T19:16:05.649Z,78.97
2022-08-19T19:18:34.400Z,79.31
2022-08-19T19:21:02.902Z,79.63
2022-08-19T19:23:31.103Z,79.68
2022-08-19T19:25:59.610Z,79.85
2022-08-19T19:28:28.995Z,80.19
2022-08-19T19:30:59.261Z,80.86
2022-08-19T19:33:27.754Z,80.91
2022-08-19T19:35:55.773Z,80.94
2022-08-19T19:38:24.055Z,81.52
2022-08-19T19:40:51.908Z,81.21
2022-08-19T19:43:19.750Z,82.40
2022-08-19T19:45:49.191Z,82.23
2022-08-19T19:48:18.905Z,82.58
2022-08-19T19:50:53.986Z,82.72
2022-08-19T19:53:24.723Z,82.55
2022-08-19T19:55:55.107Z,83.53
2022-08-19T19:58:28.717Z,83.94
2022-08-19T20:00:58.194Z,83.46
2022-08-19T20:03:29.872Z,83.52
2022-08-19T20:05:59.549Z,83.42
2022-08-19T20:08:45.471Z,84.17
2022-08-19T20:11:17.607Z,84.19
2022-08-19T20:13:45.444Z,84.77
2022-08-19T20:16:13.589Z,85.22
2022-08-19T20:18:43.693Z,84.63
2022-08-19T20:21:13.630Z,84.13
2022-08-19T20:23:41.574Z,85.27
2022-08-19T20:26:19.296Z,85.10
2022-08-19T20:29:13.646Z,85.01
2022-08-19T20:31:57.640Z,85.41
2022-08-19T20:34:29.012Z,84.84
2022-08-19T20:36:57.222Z,85.63
2022-08-19T20:39:24.895Z,84.51
2022-08-19T20:41:52.705Z,82.58
2022-08-19T20:44:22.616Z,82.92
2022-08-19T20:46:57.485Z,82.63
2022-08-19T20:49:32.949Z,82.33
2022-08-19T20:52:01.897Z,81.32
2022-08-19T20:54:30.425Z,80.76
2022-08-19T20:56:58.649Z,81.57
2022-08-19T20:59:27.339Z,79.87
2022-08-19T21:01:57.548Z,78.78
2022-08-19T21:04:27.217Z,81.74
2022-08-19T21:06:56.535Z,80.40
2022-08-19T21:09:25.249Z,80.90
2022-08-19T21:11:53.909Z,80.69
2022-08-19T21:14:24.814Z,81.08
2022-08-19T21:16:54.129Z,81.58
2022-08-19T21:19:24.161Z,80.83
2022-08-19T21:21:53.614Z,80.26
2022-08-19T21:24:31.616Z,78.77
2022-08-19T21:27:00.884Z,80.32
2022-08-19T21:29:32.327Z,80.46
2022-08-19T21:32:03.888Z,80.33
2022-08-19T21:34:31.938Z,80.44
2022-08-19T21:37:01.296Z,80.38
2022-08-19T21:39:31.777Z,80.54
2022-08-19T21:42:00.957Z,80.55
2022-08-19T21:44:28.872Z,79.84
2022-08-19T21:47:02.135Z,79.45
2022-08-19T21:49:31.065Z,79.89
2022-08-19T21:52:03.678Z,78.68
2022-08-19T21:54:38.523Z,79.58
2022-08-19T21:57:11.122Z,80.44
2022-08-19T21:59:43.524Z,79.30
2022-08-19T22:02:21.072Z,80.73
2022-08-19T22:04:52.757Z,79.66
2022-08-19T22:07:25.145Z,80.63
2022-08-19T22:09:56.699Z,79.32
2022-08-19T22:12:28.885Z,79.95
2022-08-19T22:15:01.125Z,80.29
2022-08-19T22:17:34.481Z,80.26
2022-08-19T22:20:07.670Z,78.95
2022-08-19T22:22:42.520Z,80.18
2022-08-19T22:25:31.125Z,81.22
2022-08-19T22:28:02.001Z,80.92
2022-08-19T22:30:34.330Z,80.44
2022-08-19T22:33:06.635Z,80.20
2022-08-19T22:35:43.551Z,80.01
2022-08-19T22:38:12.786Z,80.00
2022-08-19T22:40:46.344Z,79.23
2022-08-19T22:43:19.079Z,79.43
2022-08-19T22:45:48.523Z,79.29
2022-08-19T22:48:19.314Z,79.65
2022-08-19T22:51:03.236Z,80.20
2022-08-19T22:53:31.741Z,79.21
2022-08-19T22:56:01.495Z,80.84
2022-08-19T22:58:29.819Z,80.20
2022-08-19T23:00:58.040Z,80.57
2022-08-19T23:03:25.983Z,80.10
2022-08-19T23:05:54.023Z,80.18
2022-08-19T23:08:21.839Z,79.92
2022-08-19T23:10:49.900Z,78.73
2022-08-19T23:13:19.620Z,79.54
2022-08-19T23:15:48.958Z,80.26
2022-08-19T23:18:16.851Z,80.21
2022-08-19T23:20:45.939Z,79.08
2022-08-19T23:23:18.736Z,80.13
2022-08-19T23:25:47.586Z,79.03
2022-08-19T23:28:33.048Z,80.82
2022-08-19T23:31:02.377Z,80.91
2022-08-19T23:33:50.913Z,79.40
2022-08-19T23:36:20.587Z,80.50
2022-08-19T23:38:52.033Z,79.65
2022-08-19T23:41:22.343Z,81.00
2022-08-19T23:43:51.372Z,79.44
2022-08-19T23:46:28.353Z,81.40
2022-08-19T23:48:56.641Z,82.94
2022-08-19T23:51:26.868Z,83.50
2022-08-19T23:53:55.210Z,81.37
2022-08-19T23:56:22.946Z,81.43
2022-08-19T23:58:50.949Z,82.30
